Main page
METAR-TAF:

METAR-TAF

Airports :

Kristiansund Airport. Kvernberget

Kristiansund, Norway

latitude: 63-07N, longitude: 007-50E, elevation: 6 m

Current weather observation

The report was made 20 minutes ago, at 18:20 UTC
Wind 5 kt from the West/Southwest
Temperature 14°C
Humidity 82%
Pressure 1017 hPa
Visibility 10 km or more
Few clouds at a height of 1200 ft
Scattered clouds at a height of 1900 ft
Broken clouds at a height of 5200 ft

METAR: ENKB 231820Z 25005KT 9999 FEW012 SCT019 BKN052 14/11 Q1017 RMK WIND 745FT 27005KT

Time: 20:40 (18:40 UTC)

Forecast

The report was made 4 hours and 40 minutes ago, at 14:00 UTC
Forecast valid from 23 at 15 UTC to 23 at 22 UTC
Wind 8 kt from the West/Northwest
Visibility 10 km or more
Broken clouds at a height of 800 ft
light rain
Becoming
from 23 at 15 UTC to 23 at 18 UTC
Scattered clouds at a height of 1000 ft
Broken clouds at a height of 1800 ft

TAF: ENKB 231400Z 2315/2322 29008KT 9999 -RA BKN008 BECMG 2315/2318 SCT010 BKN018

Weather observations and forecasts of more than 4000 airports (METAR and TAF reports).

The available stations are represented by yellow and red dots on the map.

Hover mouse over dot to see the name of the station.

Then click to see weather observations and forecasts.

To change the map : click on the green buttons with a black cross to zoom in, on the green button with a dash to zoom out, or on the green arrows for adjacent maps.


METAR-TAF: